Time;durP1;ratioP1;P1;durP2;ratioP2;P2;SDS_P1;SDS_P2;PMS_P1;PMS_P2;Temp;Humidity;BMP_temperature;BMP_pressure;BME280_temperature;BME280_humidity;BME280_pressure;Samples;Min_cycle;Max_cycle;Signal;HPM_P1;HPM_P2
2023/07/16 00:00:59;;;;;;;8.90;2.30;;;17.60;99.90;;;;;;5082080;28;20044;-77
2023/07/16 00:03:24;;;;;;;7.85;2.60;;;17.60;99.90;;;;;;5086095;28;20090;-77
2023/07/16 00:05:51;;;;;;;6.05;2.50;;;17.50;99.90;;;;;;5084382;28;21371;-77
2023/07/16 00:08:16;;;;;;;7.72;2.50;;;17.40;99.90;;;;;;5082209;28;20059;-77
2023/07/16 00:10:42;;;;;;;9.13;2.80;;;17.40;99.90;;;;;;5085141;28;20037;-78
2023/07/16 00:13:07;;;;;;;11.07;3.28;;;17.40;99.90;;;;;;5062312;28;20037;-77
2023/07/16 00:15:33;;;;;;;8.05;2.42;;;17.30;99.90;;;;;;5088627;28;20036;-77
2023/07/16 00:17:59;;;;;;;7.28;2.65;;;17.30;99.90;;;;;;5059549;28;20090;-78
2023/07/16 00:20:24;;;;;;;7.65;2.47;;;17.30;99.90;;;;;;5088698;28;20092;-77
2023/07/16 00:22:51;;;;;;;10.55;3.10;;;17.30;99.90;;;;;;5086777;28;20044;-78
2023/07/16 00:25:16;;;;;;;8.82;2.92;;;17.30;99.90;;;;;;5086797;28;20661;-77
2023/07/16 00:27:42;;;;;;;9.05;3.35;;;17.30;99.90;;;;;;5090766;28;20032;-77
2023/07/16 00:30:08;;;;;;;8.88;2.70;;;17.30;99.90;;;;;;5083861;28;20036;-77
2023/07/16 00:32:34;;;;;;;7.20;2.63;;;17.30;99.90;;;;;;5090826;28;20522;-77
2023/07/16 00:35:01;;;;;;;8.25;2.95;;;17.20;99.90;;;;;;5088796;28;20040;-77
2023/07/16 00:37:26;;;;;;;7.72;2.70;;;17.20;99.90;;;;;;5090514;28;20093;-78
2023/07/16 00:39:52;;;;;;;8.68;2.80;;;17.20;99.90;;;;;;5090237;28;20040;-78
2023/07/16 00:42:17;;;;;;;9.68;2.40;;;17.20;99.90;;;;;;5089851;28;20032;-78
2023/07/16 00:44:43;;;;;;;11.77;2.40;;;17.20;99.90;;;;;;5090961;28;20040;-77
2023/07/16 00:47:09;;;;;;;9.77;3.00;;;17.10;99.90;;;;;;5084017;28;20511;-78
2023/07/16 00:49:35;;;;;;;8.10;2.33;;;17.10;99.90;;;;;;5089656;28;20177;-77
2023/07/16 00:52:01;;;;;;;7.95;2.58;;;17.10;99.90;;;;;;5090109;28;20131;-77
2023/07/16 00:54:29;;;;;;;8.27;2.80;;;17.10;99.90;;;;;;5089674;28;20047;-78
2023/07/16 00:56:55;;;;;;;7.47;2.38;;;17.00;99.90;;;;;;5089420;28;20040;-78
2023/07/16 00:59:21;;;;;;;6.80;2.53;;;17.00;99.90;;;;;;5089479;28;20522;-77
2023/07/16 01:01:46;;;;;;;11.65;3.05;;;17.00;99.90;;;;;;5091814;28;20067;-78
2023/07/16 01:04:12;;;;;;;9.48;2.90;;;17.00;99.90;;;;;;5091581;28;20038;-78
2023/07/16 01:06:44;;;;;;;7.85;2.97;;;17.10;99.90;;;;;;5090074;28;20033;-78
2023/07/16 01:09:17;;;;;;;9.55;2.97;;;17.10;99.90;;;;;;5057147;28;20162;-78
2023/07/16 01:11:44;;;;;;;8.10;2.60;;;17.10;99.90;;;;;;5072518;28;20036;-78
2023/07/16 01:14:12;;;;;;;10.90;3.15;;;17.10;99.90;;;;;;5092043;28;20040;-78
2023/07/16 01:16:38;;;;;;;10.15;3.00;;;17.10;99.90;;;;;;5091664;28;20047;-77
2023/07/16 01:19:04;;;;;;;8.43;3.30;;;17.10;99.90;;;;;;5091072;28;20036;-77
2023/07/16 01:21:57;;;;;;;10.77;2.85;;;17.10;99.90;;;;;;5090658;28;20560;-77
2023/07/16 01:24:31;;;;;;;7.03;2.88;;;17.10;99.90;;;;;;5090727;28;20606;-78
2023/07/16 01:27:09;;;;;;;10.73;2.90;;;17.10;99.90;;;;;;5090033;28;20043;-78
2023/07/16 01:29:53;;;;;;;10.60;2.70;;;17.20;99.90;;;;;;5090935;28;20032;-77
2023/07/16 01:32:21;;;;;;;7.38;2.92;;;17.20;99.90;;;;;;5090669;28;20044;-77
2023/07/16 01:34:48;;;;;;;9.48;2.70;;;17.10;99.90;;;;;;5090177;28;20114;-78
2023/07/16 01:37:13;;;;;;;10.18;2.60;;;17.10;99.90;;;;;;5090981;28;20040;-77
2023/07/16 01:39:39;;;;;;;9.65;2.70;;;17.20;99.90;;;;;;5090739;28;20410;-77
2023/07/16 01:42:05;;;;;;;8.40;2.17;;;17.20;99.90;;;;;;5091297;28;20040;-77
2023/07/16 01:44:31;;;;;;;9.43;2.92;;;17.10;99.90;;;;;;5090862;28;20396;-77
2023/07/16 01:47:08;;;;;;;8.07;2.45;;;17.10;99.90;;;;;;5089368;28;20162;-78
2023/07/16 01:49:34;;;;;;;6.47;2.63;;;17.10;99.90;;;;;;5089676;28;20143;-78
2023/07/16 01:52:01;;;;;;;8.45;2.70;;;17.10;99.90;;;;;;5089777;28;20051;-77
2023/07/16 01:54:27;;;;;;;10.90;2.80;;;17.10;99.90;;;;;;5090489;28;20043;-78
2023/07/16 01:56:52;;;;;;;6.50;2.40;;;17.00;99.90;;;;;;5091801;28;20340;-77
2023/07/16 01:59:18;;;;;;;7.70;2.58;;;17.10;99.90;;;;;;5090420;28;20076;-79
2023/07/16 02:01:43;;;;;;;7.50;2.55;;;17.00;99.90;;;;;;5091255;28;20047;-77
2023/07/16 02:04:09;;;;;;;7.65;2.53;;;17.00;99.90;;;;;;5091648;28;20035;-79
2023/07/16 02:06:34;;;;;;;9.73;2.88;;;17.00;99.90;;;;;;5091639;28;20032;-78
2023/07/16 02:09:00;;;;;;;9.93;2.92;;;17.00;99.90;;;;;;5074602;28;20384;-79
2023/07/16 02:11:26;;;;;;;7.60;2.67;;;17.00;99.90;;;;;;5090751;28;20456;-78
2023/07/16 02:13:51;;;;;;;8.55;2.80;;;17.00;99.90;;;;;;5090490;28;20487;-79
2023/07/16 02:16:17;;;;;;;8.07;2.65;;;16.90;99.90;;;;;;5089989;28;20035;-78
2023/07/16 02:18:42;;;;;;;10.13;2.47;;;16.90;99.90;;;;;;5090152;28;20044;-78
2023/07/16 02:21:08;;;;;;;7.88;2.95;;;16.90;99.90;;;;;;5092045;28;20101;-78
2023/07/16 02:23:33;;;;;;;8.75;3.88;;;16.90;99.90;;;;;;5090817;28;20036;-77
2023/07/16 02:25:59;;;;;;;10.25;3.05;;;16.90;99.90;;;;;;5090860;28;20044;-78
2023/07/16 02:28:24;;;;;;;8.95;3.33;;;16.90;99.90;;;;;;5073904;28;20040;-79
2023/07/16 02:30:50;;;;;;;7.60;3.15;;;16.90;99.90;;;;;;5090354;28;20412;-78
2023/07/16 02:33:16;;;;;;;9.38;3.38;;;16.90;99.90;;;;;;5090371;28;20070;-77
2023/07/16 02:35:49;;;;;;;6.70;2.90;;;16.90;99.90;;;;;;5094581;28;20040;-78
2023/07/16 02:38:15;;;;;;;8.98;3.33;;;16.90;99.90;;;;;;5095590;28;20523;-78
2023/07/16 02:40:48;;;;;;;5.95;3.22;;;17.00;99.90;;;;;;5095164;28;20043;-79
2023/07/16 02:43:14;;;;;;;12.00;4.00;;;16.90;99.90;;;;;;5095070;28;20104;-80
2023/07/16 02:45:41;;;;;;;7.85;3.70;;;16.90;99.90;;;;;;5095257;28;20088;-79
2023/07/16 02:48:06;;;;;;;10.38;3.88;;;16.90;99.90;;;;;;5095578;28;20135;-79
2023/07/16 02:50:37;;;;;;;9.38;3.30;;;16.90;99.90;;;;;;5095897;28;20047;-79
2023/07/16 02:53:04;;;;;;;6.93;3.28;;;16.90;99.90;;;;;;5095150;28;20085;-78
2023/07/16 02:55:30;;;;;;;8.07;3.40;;;16.90;99.90;;;;;;5095809;28;20452;-79
2023/07/16 02:57:56;;;;;;;9.27;3.60;;;16.90;99.90;;;;;;5078186;28;20075;-78
2023/07/16 03:00:21;;;;;;;8.80;3.80;;;16.90;99.90;;;;;;5094817;28;20503;-78
2023/07/16 03:02:48;;;;;;;8.27;3.63;;;16.80;99.90;;;;;;5095313;28;20043;-80
2023/07/16 03:05:15;;;;;;;8.77;3.20;;;16.80;99.90;;;;;;5096195;28;20043;-78
2023/07/16 03:07:40;;;;;;;7.70;3.88;;;16.90;99.90;;;;;;5095487;28;20040;-79
2023/07/16 03:10:06;;;;;;;9.32;3.60;;;16.80;99.90;;;;;;5095272;28;20070;-79
2023/07/16 03:12:32;;;;;;;10.27;3.53;;;16.80;99.90;;;;;;5094569;28;20036;-78
2023/07/16 03:14:57;;;;;;;11.25;4.00;;;16.80;99.90;;;;;;5095451;28;20495;-78
2023/07/16 03:17:22;;;;;;;9.25;3.50;;;16.80;99.90;;;;;;5096913;28;20511;-78
2023/07/16 03:19:48;;;;;;;11.32;3.72;;;16.70;99.90;;;;;;5096331;28;20076;-79
2023/07/16 03:22:14;;;;;;;9.05;3.85;;;16.70;99.90;;;;;;5094953;28;20166;-78
2023/07/16 03:24:40;;;;;;;8.95;3.58;;;16.70;99.90;;;;;;5094730;28;20517;-77
2023/07/16 03:27:06;;;;;;;11.52;3.70;;;16.70;99.90;;;;;;5079199;28;20043;-78
2023/07/16 03:29:33;;;;;;;12.02;4.43;;;16.70;99.90;;;;;;5094806;28;20098;-79
2023/07/16 03:31:58;;;;;;;8.27;3.90;;;16.60;99.90;;;;;;5094756;28;20035;-78
2023/07/16 03:34:24;;;;;;;8.45;3.88;;;16.60;99.90;;;;;;5094352;28;20127;-78
2023/07/16 03:36:50;;;;;;;6.97;3.88;;;16.70;99.90;;;;;;5095940;28;20414;-78
2023/07/16 03:39:15;;;;;;;10.68;4.35;;;16.70;99.90;;;;;;5094076;28;20044;-78
2023/07/16 03:41:41;;;;;;;10.32;3.70;;;16.70;99.90;;;;;;5079995;28;20064;-78
2023/07/16 03:44:06;;;;;;;9.52;4.28;;;16.70;99.90;;;;;;5098389;28;20066;-78
2023/07/16 03:46:32;;;;;;;6.70;3.53;;;16.70;99.90;;;;;;5095716;28;20036;-79
2023/07/16 03:48:57;;;;;;;9.98;3.92;;;16.70;99.90;;;;;;5095330;28;20043;-79
2023/07/16 03:51:23;;;;;;;9.98;4.15;;;16.70;99.90;;;;;;5097324;28;20044;-77
2023/07/16 03:53:48;;;;;;;8.32;3.72;;;16.70;99.90;;;;;;5093847;28;20380;-79
2023/07/16 03:56:14;;;;;;;11.85;4.53;;;16.70;99.90;;;;;;5096544;28;20044;-80
2023/07/16 03:58:40;;;;;;;7.85;3.75;;;16.70;99.90;;;;;;5096730;28;20100;-78
2023/07/16 04:01:05;;;;;;;10.20;4.32;;;16.70;99.90;;;;;;5095645;28;20577;-79
2023/07/16 04:03:31;;;;;;;9.05;4.15;;;16.70;99.90;;;;;;5095806;28;20563;-79
2023/07/16 04:06:04;;;;;;;10.40;4.45;;;16.70;99.90;;;;;;5095401;28;20062;-81
2023/07/16 04:08:29;;;;;;;10.83;4.00;;;16.70;99.90;;;;;;5094761;28;20032;-78
2023/07/16 04:10:55;;;;;;;10.15;4.43;;;16.70;99.90;;;;;;5097039;28;20290;-79
2023/07/16 04:13:20;;;;;;;8.10;3.90;;;16.80;99.90;;;;;;5095841;28;20127;-79
2023/07/16 04:15:46;;;;;;;9.23;4.15;;;16.80;99.90;;;;;;5098345;28;20113;-80
2023/07/16 04:18:12;;;;;;;9.02;4.10;;;16.80;99.90;;;;;;5097721;28;20048;-78
2023/07/16 04:20:37;;;;;;;10.35;4.22;;;16.80;99.90;;;;;;5097292;28;20102;-78
2023/07/16 04:23:03;;;;;;;18.58;4.65;;;16.80;99.90;;;;;;5096653;28;20040;-78
2023/07/16 04:25:28;;;;;;;12.02;4.50;;;16.80;99.90;;;;;;5099169;28;20036;-78
2023/07/16 04:27:54;;;;;;;11.35;4.32;;;16.90;99.90;;;;;;5081129;28;20042;-80
2023/07/16 04:30:19;;;;;;;10.45;4.43;;;17.00;99.90;;;;;;5095380;28;20047;-79
2023/07/16 04:32:45;;;;;;;7.68;4.30;;;17.30;99.90;;;;;;5095921;28;20122;-79
2023/07/16 04:35:10;;;;;;;11.82;4.82;;;17.00;99.90;;;;;;5095655;28;20039;-79
2023/07/16 04:37:36;;;;;;;12.75;4.75;;;17.00;99.90;;;;;;5097011;28;20040;-79
2023/07/16 04:40:01;;;;;;;12.20;4.95;;;17.00;99.90;;;;;;5080009;28;20040;-78
2023/07/16 04:42:27;;;;;;;11.52;4.57;;;17.00;99.90;;;;;;5095967;28;20050;-78
2023/07/16 04:44:53;;;;;;;11.20;4.95;;;17.10;99.90;;;;;;5095820;28;20036;-80
2023/07/16 04:47:18;;;;;;;11.40;4.88;;;17.10;99.90;;;;;;5095855;28;20032;-81
2023/07/16 04:49:44;;;;;;;10.68;4.80;;;17.10;99.90;;;;;;5096797;28;20089;-78
2023/07/16 04:52:09;;;;;;;15.07;5.40;;;17.10;99.90;;;;;;5096765;28;20052;-80
2023/07/16 04:54:37;;;;;;;13.05;5.00;;;17.20;99.90;;;;;;5097343;28;20040;-79
2023/07/16 04:57:03;;;;;;;10.40;5.70;;;17.20;99.90;;;;;;5095485;28;20115;-79
2023/07/16 04:59:29;;;;;;;10.82;4.95;;;17.30;99.90;;;;;;5097962;28;20059;-78
2023/07/16 05:01:54;;;;;;;8.90;5.15;;;17.40;99.90;;;;;;5078860;28;20036;-78
2023/07/16 05:04:20;;;;;;;13.95;4.97;;;17.40;99.90;;;;;;5094451;28;20068;-78
2023/07/16 05:06:45;;;;;;;11.48;5.00;;;17.50;99.90;;;;;;5062924;28;20104;-78
2023/07/16 05:09:12;;;;;;;11.48;5.55;;;17.50;99.90;;;;;;5074364;28;20575;-78
2023/07/16 05:11:38;;;;;;;10.70;5.00;;;17.60;99.90;;;;;;5079833;28;20040;-79
2023/07/16 05:14:04;;;;;;;11.27;5.25;;;17.70;99.90;;;;;;5076508;28;20075;-79
2023/07/16 05:16:29;;;;;;;11.30;5.15;;;17.70;99.90;;;;;;5076245;28;20158;-80
2023/07/16 05:18:55;;;;;;;11.07;4.75;;;17.70;99.90;;;;;;5080856;28;20048;-81
2023/07/16 05:21:20;;;;;;;13.15;4.95;;;17.70;99.90;;;;;;5081724;28;20058;-78
2023/07/16 05:23:46;;;;;;;11.18;4.55;;;17.80;99.90;;;;;;5094467;28;20036;-78
2023/07/16 05:26:11;;;;;;;9.00;4.70;;;17.90;99.90;;;;;;5101772;28;20068;-79
2023/07/16 05:28:37;;;;;;;9.60;4.28;;;18.00;99.90;;;;;;5106851;28;20114;-79
2023/07/16 05:31:03;;;;;;;10.10;4.30;;;18.00;99.90;;;;;;5100481;28;20063;-78
2023/07/16 05:33:29;;;;;;;13.45;4.80;;;18.00;99.90;;;;;;5094185;28;20044;-80
2023/07/16 05:35:55;;;;;;;10.23;3.95;;;18.20;99.90;;;;;;5094603;28;20093;-78
2023/07/16 05:38:21;;;;;;;8.20;3.92;;;18.20;99.90;;;;;;5094562;28;20445;-77
2023/07/16 05:40:46;;;;;;;10.45;3.67;;;18.10;99.90;;;;;;5094101;28;20047;-78
2023/07/16 05:43:13;;;;;;;12.18;4.10;;;18.10;99.90;;;;;;5084854;28;20036;-77
2023/07/16 05:45:38;;;;;;;8.88;4.03;;;18.00;99.90;;;;;;5093460;28;20040;-78
2023/07/16 05:48:04;;;;;;;11.70;4.53;;;18.10;99.90;;;;;;5091692;28;20131;-80
2023/07/16 05:50:29;;;;;;;10.32;4.13;;;18.10;99.90;;;;;;5090149;28;20059;-80
2023/07/16 05:52:55;;;;;;;13.38;4.55;;;18.10;99.90;;;;;;5059176;28;20036;-80
2023/07/16 05:55:20;;;;;;;9.50;3.90;;;18.10;99.90;;;;;;5084527;28;20446;-79
2023/07/16 05:57:46;;;;;;;8.40;3.38;;;18.30;99.90;;;;;;5085216;28;20042;-79
2023/07/16 06:00:13;;;;;;;9.10;4.20;;;18.30;99.90;;;;;;5069941;28;20043;-78
2023/07/16 06:02:39;;;;;;;11.38;4.30;;;18.50;99.90;;;;;;5076641;28;20043;-80
2023/07/16 06:05:05;;;;;;;10.40;4.30;;;18.70;99.90;;;;;;5088873;28;20454;-80
2023/07/16 06:07:31;;;;;;;9.32;4.60;;;18.80;99.90;;;;;;5058089;28;20042;-78
2023/07/16 06:09:57;;;;;;;10.20;4.57;;;18.80;99.90;;;;;;5062670;28;20111;-79
2023/07/16 06:12:23;;;;;;;11.15;4.10;;;18.90;99.90;;;;;;5095378;28;20046;-79
2023/07/16 06:14:48;;;;;;;10.32;3.85;;;18.80;99.90;;;;;;5093724;28;20202;-78
2023/07/16 06:17:14;;;;;;;10.90;4.00;;;18.80;99.90;;;;;;5093984;28;20119;-79
2023/07/16 06:19:39;;;;;;;8.95;4.10;;;18.90;99.90;;;;;;5091292;28;20460;-77
2023/07/16 06:22:05;;;;;;;12.68;4.28;;;19.00;99.90;;;;;;5071900;28;20136;-78
2023/07/16 06:24:30;;;;;;;11.85;4.35;;;19.20;99.90;;;;;;5082761;28;20043;-79
2023/07/16 06:26:56;;;;;;;8.77;4.40;;;19.40;99.90;;;;;;5092775;28;20131;-77
2023/07/16 06:29:22;;;;;;;9.90;3.97;;;19.40;99.90;;;;;;5092029;28;20048;-78
2023/07/16 06:31:58;;;;;;;9.27;4.18;;;19.40;99.90;;;;;;5092751;28;20074;-78
2023/07/16 06:34:27;;;;;;;11.38;4.55;;;19.20;99.90;;;;;;5096751;28;20131;-78
2023/07/16 06:36:52;;;;;;;10.48;4.80;;;19.20;99.90;;;;;;5066325;28;20037;-77
2023/07/16 06:39:18;;;;;;;10.00;4.80;;;19.00;99.90;;;;;;5072188;28;20040;-78
2023/07/16 06:41:44;;;;;;;10.25;4.40;;;19.00;99.90;;;;;;5090843;28;20111;-77
2023/07/16 06:44:09;;;;;;;12.48;4.43;;;19.00;99.90;;;;;;5075425;28;20399;-80
2023/07/16 06:46:35;;;;;;;7.32;3.80;;;19.20;99.90;;;;;;5090794;28;20036;-78
2023/07/16 06:49:00;;;;;;;9.30;4.40;;;19.20;99.90;;;;;;5092199;28;20112;-78
2023/07/16 06:51:26;;;;;;;11.25;4.43;;;19.30;99.90;;;;;;5091022;28;20039;-79
2023/07/16 06:53:51;;;;;;;9.88;4.93;;;19.30;99.90;;;;;;5090579;28;20051;-78
2023/07/16 06:56:17;;;;;;;10.85;4.82;;;19.30;99.90;;;;;;5090820;28;20040;-78
2023/07/16 06:58:42;;;;;;;8.02;4.03;;;19.40;99.90;;;;;;5092213;28;20403;-77
2023/07/16 07:01:08;;;;;;;11.70;4.45;;;19.40;99.90;;;;;;5093361;28;20125;-78
2023/07/16 07:03:34;;;;;;;14.30;5.13;;;19.60;99.90;;;;;;5091057;28;20462;-78
2023/07/16 07:06:06;;;;;;;9.85;4.80;;;19.70;99.90;;;;;;5092305;28;20540;-78
2023/07/16 07:08:31;;;;;;;8.02;4.35;;;19.60;99.90;;;;;;5074314;28;20046;-80
2023/07/16 07:10:57;;;;;;;9.38;4.75;;;19.60;99.90;;;;;;5092081;28;20110;-80
2023/07/16 07:13:23;;;;;;;10.88;5.35;;;19.70;99.90;;;;;;5092601;28;20616;-79
2023/07/16 07:15:49;;;;;;;9.02;4.28;;;19.90;99.90;;;;;;5092610;28;20071;-79
2023/07/16 07:18:14;;;;;;;8.30;4.65;;;19.80;99.90;;;;;;5092255;28;20443;-78
2023/07/16 07:20:40;;;;;;;11.73;5.05;;;19.90;99.90;;;;;;5093819;28;20082;-78
2023/07/16 07:23:07;;;;;;;9.07;4.75;;;19.80;99.90;;;;;;5094915;28;20035;-79
2023/07/16 07:25:32;;;;;;;20.98;5.00;;;20.00;99.90;;;;;;5095171;28;20048;-77
2023/07/16 07:27:58;;;;;;;9.95;5.10;;;19.90;99.90;;;;;;5093820;28;20051;-77
2023/07/16 07:30:24;;;;;;;9.23;4.90;;;19.70;99.90;;;;;;5093976;28;20040;-78
2023/07/16 07:32:49;;;;;;;8.50;4.85;;;19.50;99.90;;;;;;5093033;28;20032;-78
2023/07/16 07:35:15;;;;;;;10.82;5.03;;;19.40;99.90;;;;;;5093490;28;20036;-78
2023/07/16 07:37:40;;;;;;;10.50;4.40;;;19.30;99.90;;;;;;5093807;28;20383;-78
2023/07/16 07:40:07;;;;;;;9.27;4.88;;;19.30;99.90;;;;;;5095496;28;20036;-78
2023/07/16 07:42:33;;;;;;;8.60;4.38;;;19.40;99.90;;;;;;5095684;28;20040;-79
2023/07/16 07:44:58;;;;;;;12.27;4.20;;;19.40;99.90;;;;;;5094606;28;20119;-80
2023/07/16 07:47:24;;;;;;;9.68;5.05;;;19.30;99.90;;;;;;5095729;28;20032;-78
2023/07/16 07:49:52;;;;;;;8.88;4.50;;;19.20;99.90;;;;;;5094819;28;20028;-82
2023/07/16 07:52:21;;;;;;;7.95;4.13;;;19.20;99.90;;;;;;5095349;28;20052;-81
2023/07/16 07:54:46;;;;;;;11.32;4.57;;;19.10;99.90;;;;;;5094690;28;20040;-79
2023/07/16 07:57:12;;;;;;;10.50;4.53;;;19.20;99.90;;;;;;5095022;28;20555;-81
2023/07/16 07:59:37;;;;;;;10.40;4.80;;;19.10;99.90;;;;;;5096678;28;20036;-80
2023/07/16 08:02:03;;;;;;;10.02;4.55;;;19.20;99.90;;;;;;5095841;28;20040;-80
2023/07/16 08:04:30;;;;;;;8.52;4.63;;;19.40;99.90;;;;;;5093654;28;20487;-80
2023/07/16 08:06:56;;;;;;;9.60;4.60;;;19.70;99.90;;;;;;5094239;28;20435;-80
2023/07/16 08:09:21;;;;;;;10.95;4.25;;;19.70;99.90;;;;;;5092763;28;20032;-80
2023/07/16 08:11:48;;;;;;;9.77;4.50;;;19.70;99.90;;;;;;5094389;28;20052;-80
2023/07/16 08:14:13;;;;;;;11.10;4.15;;;19.60;99.90;;;;;;5093960;28;20481;-81
2023/07/16 08:16:42;;;;;;;10.02;4.60;;;19.60;99.90;;;;;;5076913;28;20415;-78
2023/07/16 08:19:08;;;;;;;12.43;4.28;;;19.50;99.90;;;;;;5094242;28;20083;-80
2023/07/16 08:21:34;;;;;;;9.38;4.95;;;19.40;99.90;;;;;;5077558;28;20047;-80
2023/07/16 08:23:59;;;;;;;12.07;5.00;;;19.20;99.90;;;;;;5077547;28;20035;-79
2023/07/16 08:26:25;;;;;;;8.05;4.50;;;19.10;99.90;;;;;;5096087;28;20040;-80
2023/07/16 08:28:50;;;;;;;11.07;4.93;;;19.10;99.90;;;;;;5097865;28;20040;-80
2023/07/16 08:31:16;;;;;;;14.75;5.10;;;19.20;99.90;;;;;;5095061;28;20096;-79
2023/07/16 08:33:41;;;;;;;9.07;4.43;;;19.20;99.90;;;;;;5095493;28;20135;-78
2023/07/16 08:36:07;;;;;;;10.60;4.93;;;19.00;99.90;;;;;;5097467;28;20046;-78
2023/07/16 08:38:33;;;;;;;10.13;4.95;;;18.90;99.90;;;;;;5083120;28;20067;-79
2023/07/16 08:41:00;;;;;;;10.80;4.82;;;18.90;99.90;;;;;;5094858;28;20445;-79
2023/07/16 08:43:27;;;;;;;11.30;5.18;;;19.10;99.90;;;;;;5096940;28;20135;-80
2023/07/16 08:45:52;;;;;;;9.63;4.57;;;19.40;99.90;;;;;;5095826;28;20040;-80
2023/07/16 08:48:18;;;;;;;8.32;4.93;;;19.70;99.90;;;;;;5096818;28;20568;-79
2023/07/16 08:50:47;;;;;;;11.88;5.07;;;20.00;99.90;;;;;;5096317;28;20039;-79
2023/07/16 08:53:14;;;;;;;11.18;5.00;;;20.30;99.90;;;;;;5094746;28;20040;-80
2023/07/16 08:55:40;;;;;;;10.25;5.60;;;20.50;99.90;;;;;;5094466;28;20031;-79
2023/07/16 08:58:06;;;;;;;11.98;4.80;;;20.50;99.90;;;;;;5095222;28;20043;-79
2023/07/16 09:00:33;;;;;;;9.18;4.85;;;20.60;99.90;;;;;;5094263;28;20137;-79
2023/07/16 09:02:59;;;;;;;10.70;4.85;;;20.50;99.90;;;;;;5092503;28;20028;-78
2023/07/16 09:05:25;;;;;;;10.75;5.30;;;20.70;99.90;;;;;;5093416;28;20431;-80
2023/07/16 09:07:50;;;;;;;11.32;4.68;;;20.70;99.90;;;;;;5094663;28;20036;-78
2023/07/16 09:10:16;;;;;;;11.43;5.30;;;20.90;99.90;;;;;;5093799;28;20086;-81
2023/07/16 09:12:46;;;;;;;11.95;4.80;;;20.90;99.90;;;;;;5094196;28;20502;-81
2023/07/16 09:15:13;;;;;;;8.82;4.43;;;21.10;99.90;;;;;;5094361;28;20081;-80
2023/07/16 09:17:39;;;;;;;9.23;4.85;;;21.20;99.90;;;;;;5094205;28;20063;-79
2023/07/16 09:20:06;;;;;;;9.55;4.50;;;21.40;99.90;;;;;;5095034;28;20145;-79
2023/07/16 09:22:33;;;;;;;10.88;4.75;;;21.30;99.90;;;;;;5094966;28;20495;-80
2023/07/16 09:25:00;;;;;;;9.45;4.70;;;21.10;99.90;;;;;;5095217;28;20548;-79
2023/07/16 09:27:30;;;;;;;8.35;4.50;;;21.00;99.90;;;;;;5094338;28;20140;-80
2023/07/16 09:29:56;;;;;;;9.88;4.25;;;20.80;99.90;;;;;;5095628;28;20036;-81
2023/07/16 09:32:21;;;;;;;10.80;4.65;;;20.70;99.90;;;;;;5094984;28;20124;-80
2023/07/16 09:34:50;;;;;;;11.13;4.82;;;20.80;99.90;;;;;;5094344;28;20043;-80
2023/07/16 09:37:17;;;;;;;10.35;4.68;;;20.80;99.90;;;;;;5093349;28;20036;-80
2023/07/16 09:39:45;;;;;;;8.55;4.53;;;20.70;99.90;;;;;;5093593;28;20070;-80
2023/07/16 09:42:11;;;;;;;9.98;4.40;;;20.60;99.90;;;;;;5093156;28;20047;-81
2023/07/16 09:44:37;;;;;;;10.00;4.85;;;20.50;99.90;;;;;;5075178;28;20504;-79
2023/07/16 09:47:02;;;;;;;10.73;4.50;;;20.50;99.90;;;;;;5092293;28;20040;-80
2023/07/16 09:49:29;;;;;;;10.95;4.50;;;20.40;99.90;;;;;;5078233;28;20036;-77
2023/07/16 09:51:56;;;;;;;9.50;4.85;;;20.40;99.90;;;;;;5094749;28;20446;-80
2023/07/16 09:54:24;;;;;;;8.73;4.22;;;20.40;99.90;;;;;;5094480;28;20388;-79
2023/07/16 09:56:58;;;;;;;9.05;3.95;;;20.30;99.90;;;;;;5076634;28;20070;-79
2023/07/16 09:59:26;;;;;;;8.00;3.97;;;20.60;99.90;;;;;;5092086;28;20420;-80
2023/07/16 10:01:53;;;;;;;9.30;4.00;;;20.90;99.90;;;;;;5093888;28;20056;-80
2023/07/16 10:04:19;;;;;;;8.32;4.32;;;21.20;99.90;;;;;;5092576;28;20032;-80
2023/07/16 10:06:54;;;;;;;7.80;3.88;;;21.30;99.90;;;;;;5094705;28;20463;-79
2023/07/16 10:09:40;;;;;;;7.55;4.22;;;21.20;99.90;;;;;;5093715;28;20059;-79
2023/07/16 10:12:18;;;;;;;7.50;4.10;;;21.20;99.90;;;;;;5093910;28;20036;-79
2023/07/16 10:14:52;;;;;;;9.90;4.13;;;21.20;99.90;;;;;;5083300;28;20119;-79
2023/07/16 10:17:19;;;;;;;9.27;4.50;;;21.30;99.90;;;;;;5091691;28;20032;-80
2023/07/16 10:20:07;;;;;;;8.63;4.47;;;21.30;99.90;;;;;;5062347;28;20130;-80
2023/07/16 10:22:42;;;;;;;9.48;4.55;;;21.50;99.90;;;;;;5090438;28;20044;-80
2023/07/16 10:25:17;;;;;;;9.75;4.40;;;21.80;99.90;;;;;;5092230;28;20051;-78
2023/07/16 10:27:43;;;;;;;7.57;4.40;;;22.10;99.90;;;;;;5092006;28;20042;-79
2023/07/16 10:30:09;;;;;;;9.23;4.00;;;22.10;99.90;;;;;;5093136;28;20066;-79
2023/07/16 10:32:35;;;;;;;7.30;4.30;;;21.90;99.90;;;;;;5092867;28;20039;-79
2023/07/16 10:35:02;;;;;;;9.70;4.38;;;21.60;99.90;;;;;;5092318;28;20091;-79
2023/07/16 10:37:28;;;;;;;8.35;4.07;;;21.40;99.90;;;;;;5092572;28;20040;-79
2023/07/16 10:39:58;;;;;;;8.77;4.70;;;21.30;99.90;;;;;;5093765;28;20042;-81
2023/07/16 10:42:25;;;;;;;7.82;4.20;;;21.20;99.90;;;;;;5090974;28;20163;-80
2023/07/16 10:44:52;;;;;;;9.02;5.25;;;21.00;99.90;;;;;;5090296;28;20375;-80
2023/07/16 10:47:24;;;;;;;8.88;4.90;;;21.20;99.90;;;;;;5083444;28;20063;-79
2023/07/16 10:49:54;;;;;;;10.27;4.80;;;21.60;99.90;;;;;;5074362;28;20044;-80
2023/07/16 10:52:21;;;;;;;8.55;4.60;;;22.00;99.90;;;;;;5060796;28;20036;-78
2023/07/16 10:54:48;;;;;;;9.80;4.90;;;21.90;99.90;;;;;;5080756;28;20041;-78
2023/07/16 10:57:15;;;;;;;7.90;4.50;;;22.00;99.90;;;;;;5086187;28;20069;-79
2023/07/16 10:59:42;;;;;;;8.00;4.18;;;22.10;99.90;;;;;;5087529;28;20036;-78
2023/07/16 11:02:12;;;;;;;9.23;4.53;;;22.20;99.90;;;;;;5091470;28;20055;-79
2023/07/16 11:04:39;;;;;;;11.02;4.68;;;22.30;99.90;;;;;;5088182;28;20036;-78
2023/07/16 11:07:11;;;;;;;9.20;3.92;;;22.30;99.90;;;;;;5089267;28;20032;-78
2023/07/16 11:09:45;;;;;;;7.50;4.20;;;22.40;99.90;;;;;;5078913;28;20048;-78
2023/07/16 11:12:12;;;;;;;9.90;4.30;;;22.40;99.90;;;;;;5078378;28;20047;-78
2023/07/16 11:14:39;;;;;;;7.80;4.30;;;22.30;99.90;;;;;;5085513;28;20047;-80
2023/07/16 11:17:10;;;;;;;7.28;4.35;;;22.30;99.90;;;;;;5084889;28;20036;-78
2023/07/16 11:19:37;;;;;;;8.55;4.18;;;22.30;99.90;;;;;;5092291;28;20047;-78
2023/07/16 11:22:06;;;;;;;7.38;4.07;;;22.10;99.90;;;;;;5097553;28;20035;-78
2023/07/16 11:24:40;;;;;;;9.30;3.90;;;21.80;99.90;;;;;;5087141;28;20044;-78
2023/07/16 11:27:12;;;;;;;6.93;3.92;;;21.50;99.90;;;;;;5075633;28;20036;-77
2023/07/16 11:29:38;;;;;;;6.35;3.70;;;21.30;99.90;;;;;;5064157;28;20112;-78
2023/07/16 11:32:04;;;;;;;8.40;3.67;;;21.30;99.90;;;;;;5090666;28;20036;-78
2023/07/16 11:34:30;;;;;;;7.28;3.80;;;21.20;99.90;;;;;;5084877;28;20045;-78
2023/07/16 11:37:10;;;;;;;8.88;4.07;;;21.40;99.90;;;;;;5094115;28;20356;-77
2023/07/16 11:39:36;;;;;;;8.80;4.05;;;21.70;99.90;;;;;;5088771;28;20036;-79
2023/07/16 11:42:03;;;;;;;6.20;3.70;;;21.70;99.90;;;;;;5087403;28;20047;-80
2023/07/16 11:44:35;;;;;;;8.02;4.13;;;21.70;99.90;;;;;;5085439;28;20047;-79
2023/07/16 11:47:02;;;;;;;8.07;4.43;;;21.60;99.90;;;;;;5083132;28;20433;-78
2023/07/16 11:49:28;;;;;;;9.43;3.88;;;21.40;99.90;;;;;;5082787;28;20058;-79
2023/07/16 11:51:54;;;;;;;10.30;4.32;;;21.30;99.90;;;;;;5087898;28;20040;-80
2023/07/16 11:54:19;;;;;;;6.55;3.90;;;21.10;99.90;;;;;;5082465;28;20544;-80
2023/07/16 11:56:47;;;;;;;9.45;4.18;;;21.10;99.90;;;;;;5071380;28;20450;-80
2023/07/16 11:59:12;;;;;;;7.53;4.78;;;20.70;99.90;;;;;;5088671;28;20524;-79
2023/07/16 12:01:38;;;;;;;6.88;4.22;;;20.80;99.90;;;;;;5086686;28;20140;-80
2023/07/16 12:04:04;;;;;;;8.88;4.75;;;20.80;99.90;;;;;;5091400;28;20446;-80
2023/07/16 12:06:29;;;;;;;8.85;4.30;;;21.00;99.90;;;;;;5096987;28;20047;-80
2023/07/16 12:08:55;;;;;;;6.80;4.00;;;21.10;99.90;;;;;;5092596;28;20415;-79
2023/07/16 12:11:21;;;;;;;10.25;4.55;;;21.40;99.90;;;;;;5086468;28;20043;-79
2023/07/16 12:13:47;;;;;;;8.48;4.45;;;21.50;99.90;;;;;;5086991;28;20043;-80
2023/07/16 12:16:13;;;;;;;12.63;4.85;;;21.40;99.90;;;;;;5089840;28;20036;-79
2023/07/16 12:18:38;;;;;;;8.63;4.60;;;21.40;99.90;;;;;;5084996;28;20137;-79
2023/07/16 12:21:04;;;;;;;8.50;5.18;;;21.20;99.90;;;;;;5071024;28;20065;-79
2023/07/16 12:23:30;;;;;;;9.18;4.80;;;21.00;99.90;;;;;;5083472;28;20408;-78
2023/07/16 12:25:55;;;;;;;8.95;5.00;;;21.00;99.90;;;;;;5088614;28;20043;-78
2023/07/16 12:28:21;;;;;;;7.78;4.88;;;21.30;99.90;;;;;;5089142;28;20467;-79
2023/07/16 12:30:46;;;;;;;8.43;4.90;;;21.70;99.90;;;;;;5085496;28;20033;-80
2023/07/16 12:33:12;;;;;;;10.90;4.95;;;21.70;99.90;;;;;;5087276;28;20040;-80
2023/07/16 12:35:37;;;;;;;7.35;4.85;;;21.80;99.90;;;;;;5091062;28;20043;-79
2023/07/16 12:38:03;;;;;;;7.15;4.45;;;21.60;99.90;;;;;;5087795;28;20044;-80
2023/07/16 12:40:29;;;;;;;9.25;4.60;;;21.50;99.90;;;;;;5091447;28;20036;-79